Time;durP1;ratioP1;P1;durP2;ratioP2;P2;SDS_P1;SDS_P2;PMS_P1;PMS_P2;Temp;Humidity;BMP_temperature;BMP_pressure;BME280_temperature;BME280_humidity;BME280_pressure;Samples;Min_cycle;Max_cycle;Signal;HPM_P1;HPM_P2
2022/01/23 00:00:55;;;;;;;17.93;16.03;;;;;;;5.17;100.00;101845.78;4989720;28;20795;-60
2022/01/23 00:03:21;;;;;;;20.37;16.20;;;;;;;5.13;100.00;101838.16;4990986;28;20188;-60
2022/01/23 00:05:51;;;;;;;19.40;17.00;;;;;;;5.12;100.00;101844.09;5000715;28;20702;-61
2022/01/23 00:08:20;;;;;;;21.27;17.10;;;;;;;5.16;100.00;101848.34;4995085;28;20199;-59
2022/01/23 00:10:47;;;;;;;21.40;17.93;;;;;;;5.08;100.00;101844.97;4997759;28;20250;-60
2022/01/23 00:18:23;;;;;;;20.60;18.40;;;;;;;5.16;100.00;101841.53;5000643;28;20265;-61
2022/01/23 00:20:49;;;;;;;22.33;18.80;;;;;;;5.07;100.00;101843.28;4986349;28;20369;-61
2022/01/23 00:23:29;;;;;;;21.77;19.47;;;;;;;5.14;100.00;101840.69;5002963;28;20244;-61
2022/01/23 00:31:25;;;;;;;20.67;18.17;;;;;;;5.21;100.00;101836.41;4988040;28;20701;-60
2022/01/23 00:33:54;;;;;;;23.63;19.27;;;;;;;5.17;100.00;101819.41;5017956;28;20785;-61
2022/01/23 00:36:19;;;;;;;22.03;18.70;;;;;;;5.07;100.00;101823.69;5005229;28;20224;-61
2022/01/23 00:38:44;;;;;;;22.10;19.77;;;;;;;5.15;100.00;101827.06;4993867;28;20238;-62
2022/01/23 00:41:10;;;;;;;25.87;20.30;;;;;;;5.13;100.00;101825.38;5014903;28;20229;-62
2022/01/23 00:43:40;;;;;;;26.93;21.43;;;;;;;5.14;100.00;101817.72;5021155;28;20187;-61
2022/01/23 00:46:31;;;;;;;25.47;20.97;;;;;;;5.12;100.00;101819.44;5006781;28;20211;-62
2022/01/23 00:51:26;;;;;;;23.87;20.10;;;;;;;5.12;100.00;101824.56;5005362;28;20721;-62
2022/01/23 00:53:52;;;;;;;24.30;20.80;;;;;;;5.06;100.00;101826.25;4990859;28;20204;-61
2022/01/23 00:56:17;;;;;;;26.17;20.23;;;;;;;5.03;100.00;101839.03;4992988;28;21698;-62
2022/01/23 00:58:44;;;;;;;28.13;22.30;;;;;;;5.12;100.00;101844.09;4993550;28;20204;-61
2022/01/23 01:01:09;;;;;;;24.13;21.10;;;;;;;4.90;100.00;101836.53;4999412;28;20666;-62
2022/01/23 01:03:35;;;;;;;24.17;20.37;;;;;;;4.97;100.00;101839.91;5017384;28;20179;-62
2022/01/23 01:06:00;;;;;;;25.13;20.73;;;;;;;5.05;100.00;101837.31;4997645;28;20262;-61
2022/01/23 01:08:25;;;;;;;25.87;21.47;;;;;;;4.99;100.00;101836.50;4999786;28;20172;-62
2022/01/23 01:11:10;;;;;;;24.40;21.20;;;;;;;4.99;100.00;101838.19;4997587;28;20230;-61
2022/01/23 01:35:32;;;;;;;30.63;22.43;;;;;;;5.01;100.00;101823.72;4998290;28;20212;-61
2022/01/23 01:37:58;;;;;;;29.30;22.10;;;;;;;5.00;100.00;101829.69;5012488;28;20229;-61
2022/01/23 01:40:24;;;;;;;33.17;24.10;;;;;;;5.10;100.00;101826.25;4988244;28;20643;-61
2022/01/23 01:42:50;;;;;;;27.67;22.30;;;;;;;5.11;100.00;101827.09;5006371;28;20509;-61
2022/01/23 01:45:27;;;;;;;27.60;22.13;;;;;;;4.88;100.00;101820.38;5011249;28;20210;-61
2022/01/23 01:47:57;;;;;;;29.63;23.87;;;;;;;4.98;100.00;101822.03;5011953;28;20182;-61
2022/01/23 01:50:23;;;;;;;31.40;23.73;;;;;;;4.98;100.00;101813.53;5004276;28;20320;-61
2022/01/23 01:52:49;;;;;;;29.87;23.70;;;;;;;5.01;100.00;101816.06;5024438;28;20650;-61
2022/01/23 01:55:22;;;;;;;28.10;23.50;;;;;;;5.13;100.00;101823.69;5011940;28;20218;-61
2022/01/23 01:57:55;;;;;;;28.20;22.90;;;;;;;5.12;100.00;101816.03;5011651;28;20241;-61
2022/01/23 02:10:54;;;;;;;32.83;24.17;;;;;;;5.15;100.00;101819.41;4995876;28;20290;-61
2022/01/23 02:13:33;;;;;;;30.23;23.60;;;;;;;5.22;100.00;101812.59;4993247;28;20252;-62
2022/01/23 02:51:31;;;;;;;29.40;23.23;;;;;;;4.68;100.00;101836.56;4990370;28;20233;-60
2022/01/23 02:56:45;;;;;;;30.67;23.17;;;;;;;4.77;100.00;101834.88;4991239;28;20230;-61
2022/01/23 02:59:28;;;;;;;31.83;23.57;;;;;;;4.60;100.00;101827.25;4991357;28;20662;-59
2022/01/23 03:04:48;;;;;;;33.43;22.70;;;;;;;4.79;100.00;101833.16;4980682;28;20203;-60
2022/01/23 03:13:04;;;;;;;35.73;22.93;;;;;;;4.83;100.00;101829.75;4994679;28;20233;-60
2022/01/23 03:15:08;;;;;;;27.43;22.37;;;;;;;4.85;100.00;101834.00;4990590;28;20572;-60
2022/01/23 03:29:02;;;;;;;34.03;24.33;;;;;;;4.78;100.00;101837.41;4990596;28;20202;-61
2022/01/23 03:31:29;;;;;;;26.30;21.83;;;;;;;4.57;100.00;101835.75;4989894;28;20340;-61
2022/01/23 03:33:56;;;;;;;31.13;23.47;;;;;;;4.77;100.00;101834.88;4994778;28;20209;-62
2022/01/23 03:36:21;;;;;;;28.00;22.67;;;;;;;4.74;100.00;101842.50;4990343;28;20226;-61
2022/01/23 03:38:46;;;;;;;30.40;23.17;;;;;;;4.57;100.00;101845.94;4990501;28;20560;-61
2022/01/23 03:41:12;;;;;;;30.07;22.37;;;;;;;4.58;100.00;101827.25;4989420;28;20231;-61
2022/01/23 03:43:39;;;;;;;32.30;23.93;;;;;;;4.62;100.00;101818.75;4990477;28;20698;-61
2022/01/23 03:51:19;;;;;;;32.53;23.77;;;;;;;4.97;100.00;101817.81;4990560;28;20223;-60
2022/01/23 03:53:45;;;;;;;30.87;23.83;;;;;;;4.97;100.00;101816.94;4982549;28;20215;-60
2022/01/23 03:56:10;;;;;;;29.13;22.40;;;;;;;4.94;100.00;101812.72;4976297;28;20234;-61
2022/01/23 03:58:35;;;;;;;30.67;23.73;;;;;;;4.98;100.00;101813.53;4990728;28;20266;-61
2022/01/23 04:01:01;;;;;;;30.13;23.53;;;;;;;4.94;100.00;101816.97;4977315;28;20222;-60
2022/01/23 04:03:27;;;;;;;28.50;21.93;;;;;;;4.84;100.00;101817.00;4997808;28;20628;-61
2022/01/23 04:05:52;;;;;;;28.60;22.73;;;;;;;4.87;100.00;101810.19;4990641;28;20198;-61
2022/01/23 04:08:19;;;;;;;30.73;23.63;;;;;;;4.83;100.00;101828.03;4990199;28;20175;-60
2022/01/23 04:10:44;;;;;;;27.50;22.10;;;;;;;4.85;100.00;101828.06;4985296;28;20218;-60
2022/01/23 04:16:05;;;;;;;34.70;25.13;;;;;;;4.99;100.00;101818.63;4984816;28;20232;-60
2022/01/23 05:01:53;;;;;;;32.40;23.27;;;;;;;5.20;98.91;101854.25;4994556;28;20300;-61
2022/01/23 05:04:31;;;;;;;31.67;23.23;;;;;;;5.22;98.02;101850.88;4993789;28;20238;-62
2022/01/23 05:09:29;;;;;;;29.23;22.43;;;;;;;5.14;97.25;101853.44;4993597;28;20583;-61
2022/01/23 05:11:57;;;;;;;30.57;23.23;;;;;;;5.19;97.18;101855.16;4998359;28;20239;-61
2022/01/23 05:14:29;;;;;;;30.70;22.60;;;;;;;5.24;97.17;101849.16;4993690;28;20204;-62
2022/01/23 05:16:56;;;;;;;31.60;22.77;;;;;;;4.96;96.48;101850.94;4993302;28;20187;-62
2022/01/23 05:19:21;;;;;;;27.73;21.83;;;;;;;4.97;97.08;101848.41;4993536;28;20539;-62
2022/01/23 05:24:13;;;;;;;30.63;22.00;;;;;;;5.03;96.83;101859.44;4994997;28;20175;-62
2022/01/23 05:26:44;;;;;;;30.50;22.77;;;;;;;5.03;96.92;101864.56;4992909;28;20179;-61
2022/01/23 05:29:10;;;;;;;29.63;22.50;;;;;;;5.06;96.77;101856.88;4992963;28;20616;-63
2022/01/23 05:31:35;;;;;;;28.80;21.97;;;;;;;5.03;96.84;101873.03;4994731;28;20258;-62
2022/01/23 05:34:01;;;;;;;27.10;20.83;;;;;;;5.08;96.42;101865.38;4989668;28;20204;-61
2022/01/23 05:36:27;;;;;;;26.60;21.87;;;;;;;5.10;95.58;101867.06;4992294;28;20271;-62
2022/01/23 05:38:52;;;;;;;27.00;20.97;;;;;;;5.05;95.19;101867.91;4992787;28;20188;-62
2022/01/23 05:41:18;;;;;;;28.53;21.87;;;;;;;5.04;95.52;101864.53;4993048;28;20307;-62
2022/01/23 05:43:43;;;;;;;26.60;19.90;;;;;;;5.15;94.65;101873.00;4998302;28;20191;-62
2022/01/23 05:46:09;;;;;;;26.53;20.70;;;;;;;5.08;94.25;101876.41;4992099;28;20636;-61
2022/01/23 05:48:34;;;;;;;28.47;21.47;;;;;;;5.00;94.94;101867.97;4992291;28;20312;-61
2022/01/23 05:50:59;;;;;;;26.03;20.37;;;;;;;4.97;94.75;101880.69;4990420;28;20391;-61
2022/01/23 05:53:25;;;;;;;28.57;20.87;;;;;;;5.05;94.52;101870.47;4997585;28;20187;-61
2022/01/23 05:55:50;;;;;;;24.73;20.70;;;;;;;5.01;94.44;101867.06;4992462;28;20269;-62
2022/01/23 05:58:15;;;;;;;26.43;20.93;;;;;;;5.03;95.05;101867.94;4992576;28;20632;-62
2022/01/23 06:00:41;;;;;;;25.37;20.20;;;;;;;4.90;95.76;101864.59;4987047;28;20388;-61
2022/01/23 06:03:06;;;;;;;25.90;19.87;;;;;;;4.96;95.38;101869.66;4999551;28;20263;-62
2022/01/23 06:05:31;;;;;;;25.93;19.70;;;;;;;5.04;94.91;101872.19;4992001;28;20238;-61
2022/01/23 06:07:57;;;;;;;26.27;18.83;;;;;;;5.07;94.56;101869.63;4993624;28;20191;-61
2022/01/23 06:10:25;;;;;;;24.07;19.83;;;;;;;4.97;94.85;101865.41;4987769;28;20294;-61
2022/01/23 06:12:50;;;;;;;26.80;20.43;;;;;;;5.08;94.82;101868.75;5004318;28;20290;-62
2022/01/23 06:15:16;;;;;;;25.93;19.53;;;;;;;4.98;94.77;101869.66;4988677;28;20235;-61
2022/01/23 06:17:42;;;;;;;26.17;20.23;;;;;;;5.04;94.44;101869.63;4995848;28;20180;-61
2022/01/23 06:20:10;;;;;;;25.77;18.90;;;;;;;4.98;94.23;101877.31;4983337;28;20667;-61
2022/01/23 06:22:36;;;;;;;23.03;18.47;;;;;;;4.89;93.97;101875.63;5005514;28;20528;-61
2022/01/23 06:25:05;;;;;;;23.60;19.13;;;;;;;4.99;93.39;101879.84;4999035;28;20206;-62
2022/01/23 06:27:30;;;;;;;21.97;17.70;;;;;;;4.98;92.84;101885.78;5007942;28;20186;-61
2022/01/23 06:29:55;;;;;;;23.83;18.43;;;;;;;5.05;92.72;101878.13;4991595;28;20877;-61
2022/01/23 06:32:21;;;;;;;25.63;19.70;;;;;;;5.02;93.71;101878.97;4994423;28;20250;-61
2022/01/23 06:34:46;;;;;;;22.80;17.63;;;;;;;5.00;94.16;101878.16;4983880;28;20258;-61
2022/01/23 06:37:12;;;;;;;29.73;19.40;;;;;;;4.97;94.23;101875.59;4991778;28;20194;-61
2022/01/23 06:39:37;;;;;;;26.17;19.63;;;;;;;4.84;95.11;101874.78;5006175;28;20187;-61
2022/01/23 06:42:03;;;;;;;22.13;18.37;;;;;;;4.91;95.50;101885.81;4996908;28;20309;-61
2022/01/23 06:44:29;;;;;;;21.93;18.63;;;;;;;4.94;94.65;101885.81;4988075;28;20516;-61
2022/01/23 06:46:54;;;;;;;21.40;17.83;;;;;;;5.01;95.02;101890.03;4991068;28;20179;-60
2022/01/23 06:49:19;;;;;;;22.43;18.33;;;;;;;5.05;94.20;101889.19;4991580;28;20183;-61
2022/01/23 06:51:45;;;;;;;23.00;17.80;;;;;;;5.01;94.03;101888.34;4992500;28;20310;-60
2022/01/23 06:54:10;;;;;;;25.17;18.87;;;;;;;4.98;94.03;101887.50;4992244;28;20203;-62
2022/01/23 06:56:35;;;;;;;26.80;19.57;;;;;;;5.00;94.08;101888.38;4990960;28;20188;-61
2022/01/23 06:59:01;;;;;;;23.77;17.47;;;;;;;4.87;94.52;101894.34;4991336;28;20188;-61
2022/01/23 07:01:26;;;;;;;22.77;17.60;;;;;;;4.81;95.13;101896.06;4981525;28;20282;-62
2022/01/23 07:03:51;;;;;;;27.43;19.43;;;;;;;4.67;96.38;101905.41;4990412;28;20187;-61
2022/01/23 07:06:17;;;;;;;25.60;18.17;;;;;;;4.53;97.86;101908.81;4989546;28;20288;-62
2022/01/23 07:08:46;;;;;;;22.10;17.03;;;;;;;4.39;99.11;101910.53;4991623;28;20584;-65
2022/01/23 07:11:11;;;;;;;27.00;19.17;;;;;;;4.40;100.00;101917.28;4990665;28;20850;-61
2022/01/23 07:13:36;;;;;;;21.37;17.77;;;;;;;4.45;99.94;101917.31;4997345;28;20214;-61
2022/01/23 07:16:06;;;;;;;19.50;16.13;;;;;;;4.49;99.69;101919.00;4990395;28;20299;-61
2022/01/23 07:18:32;;;;;;;23.80;18.57;;;;;;;4.44;100.00;101920.69;4991150;28;20305;-61
2022/01/23 07:20:57;;;;;;;24.30;17.70;;;;;;;4.55;100.00;101923.25;4987868;28;20270;-60
2022/01/23 07:23:23;;;;;;;23.17;17.93;;;;;;;4.47;99.91;101933.47;4998845;28;20186;-61
2022/01/23 07:25:49;;;;;;;21.93;17.47;;;;;;;4.62;98.89;101936.00;4990964;28;20208;-61
2022/01/23 07:28:17;;;;;;;23.13;17.53;;;;;;;4.37;98.23;101937.69;4990597;28;20194;-60
2022/01/23 07:30:57;;;;;;;22.77;18.13;;;;;;;4.42;98.92;101946.19;4985843;28;20634;-61
2022/01/23 07:33:22;;;;;;;22.60;17.20;;;;;;;4.49;98.69;101954.69;4993815;28;20183;-61
2022/01/23 07:35:48;;;;;;;22.83;18.47;;;;;;;4.61;98.14;101953.84;4990227;28;20319;-62
2022/01/23 07:38:17;;;;;;;21.27;17.13;;;;;;;4.67;97.66;101952.13;4990652;28;20254;-61
2022/01/23 07:40:48;;;;;;;22.07;17.13;;;;;;;4.56;96.86;101940.25;4985805;28;20231;-61
2022/01/23 07:43:14;;;;;;;21.80;17.40;;;;;;;4.57;97.27;101952.16;4999635;28;20211;-61
2022/01/23 07:45:40;;;;;;;24.50;18.53;;;;;;;4.70;96.77;101951.28;4990700;28;20254;-61
2022/01/23 07:48:06;;;;;;;24.20;18.57;;;;;;;4.71;96.02;101952.97;4990278;28;20302;-61
2022/01/23 07:50:31;;;;;;;26.50;17.13;;;;;;;4.49;95.98;101957.22;4983062;28;20689;-61
2022/01/23 07:52:57;;;;;;;23.60;17.53;;;;;;;4.54;96.42;101968.28;4986606;28;20174;-61
2022/01/23 07:55:22;;;;;;;21.37;16.70;;;;;;;4.57;96.86;101970.00;4990380;28;20207;-62
2022/01/23 07:57:47;;;;;;;22.67;18.60;;;;;;;4.75;95.84;101967.44;4990445;28;20179;-61
2022/01/23 08:00:14;;;;;;;21.97;16.87;;;;;;;4.72;94.95;101964.03;4971449;28;20179;-61
2022/01/23 08:02:40;;;;;;;24.80;18.47;;;;;;;4.84;95.01;101969.16;5003673;28;20263;-61
2022/01/23 08:05:06;;;;;;;24.27;17.50;;;;;;;4.99;94.60;101964.00;4991031;28;20230;-61
2022/01/23 08:07:31;;;;;;;21.00;17.70;;;;;;;5.14;93.47;101965.69;4990029;28;20218;-61
2022/01/23 08:09:58;;;;;;;21.93;17.40;;;;;;;4.96;93.78;101958.94;4990749;28;20210;-63
2022/01/23 08:12:25;;;;;;;20.10;16.53;;;;;;;5.08;93.50;101959.75;4996356;28;20219;-61
2022/01/23 08:14:51;;;;;;;19.90;16.33;;;;;;;5.13;93.49;101965.69;4990650;28;20627;-61
2022/01/23 08:17:19;;;;;;;24.27;17.07;;;;;;;5.24;92.91;101974.19;4995618;28;20226;-61
2022/01/23 08:19:44;;;;;;;25.67;18.07;;;;;;;5.30;92.83;101974.16;4989200;28;20218;-61
2022/01/23 08:22:09;;;;;;;25.20;17.40;;;;;;;5.27;92.34;101976.72;4994856;28;20289;-61
2022/01/23 08:24:35;;;;;;;23.23;18.03;;;;;;;5.24;91.75;101976.72;4990018;28;20344;-61
2022/01/23 08:27:00;;;;;;;20.83;16.83;;;;;;;5.30;91.53;101971.59;4989040;28;20629;-61
2022/01/23 08:29:26;;;;;;;23.00;17.57;;;;;;;5.28;91.43;101973.34;4997177;28;20699;-62
2022/01/23 08:31:51;;;;;;;23.70;16.70;;;;;;;5.34;91.21;101983.50;4957754;28;20629;-61
2022/01/23 08:34:16;;;;;;;22.07;17.50;;;;;;;5.41;90.77;101991.13;5010765;28;21663;-61
2022/01/23 08:36:42;;;;;;;21.13;17.17;;;;;;;5.42;90.47;101995.41;5016407;28;20183;-62
2022/01/23 08:39:07;;;;;;;25.17;18.13;;;;;;;5.46;90.13;101992.84;5011720;28;20188;-61
2022/01/23 08:41:50;;;;;;;21.97;17.23;;;;;;;5.53;89.92;101991.09;5010430;28;20248;-62
2022/01/23 08:44:21;;;;;;;19.93;16.13;;;;;;;5.52;89.68;101991.13;5016931;28;20183;-62
2022/01/23 08:46:47;;;;;;;22.30;17.13;;;;;;;5.49;90.06;101989.44;5016828;28;20189;-62
2022/01/23 08:49:13;;;;;;;20.77;17.00;;;;;;;5.36;90.99;101985.19;5008283;28;20183;-62
2022/01/23 08:51:38;;;;;;;22.03;16.97;;;;;;;5.38;91.09;101983.50;5018708;28;21779;-61
2022/01/23 08:54:04;;;;;;;24.17;17.97;;;;;;;5.25;90.74;101983.53;5014371;28;20206;-61
2022/01/23 08:56:30;;;;;;;20.27;17.63;;;;;;;5.24;91.54;101969.06;5011040;28;20668;-61
2022/01/23 08:58:55;;;;;;;22.57;18.20;;;;;;;5.34;91.24;101978.38;5008678;28;20179;-60
2022/01/23 09:01:25;;;;;;;21.90;17.53;;;;;;;5.29;90.71;101977.56;5012925;28;20316;-61
2022/01/23 09:03:51;;;;;;;23.63;16.67;;;;;;;5.46;90.29;101981.78;5017085;28;20596;-61
2022/01/23 09:06:17;;;;;;;20.70;17.13;;;;;;;5.47;89.47;101978.34;5011024;28;20219;-61
2022/01/23 09:08:42;;;;;;;20.43;16.23;;;;;;;5.33;89.45;101971.63;5010438;28;20271;-60
2022/01/23 09:14:14;;;;;;;20.10;16.40;;;;;;;5.39;89.99;101975.84;4933007;29;20199;-61
2022/01/23 09:16:43;;;;;;;19.10;15.23;;;;;;;5.29;90.74;101969.91;4932572;29;20191;-60
2022/01/23 09:19:09;;;;;;;21.33;16.23;;;;;;;5.28;91.41;101978.44;4933578;29;20195;-61
2022/01/23 09:21:36;;;;;;;20.07;16.33;;;;;;;5.34;91.66;101973.28;4924507;28;20251;-61
2022/01/23 09:24:01;;;;;;;21.33;17.63;;;;;;;5.53;91.10;101978.34;4932477;29;20221;-61
2022/01/23 09:26:27;;;;;;;20.17;16.23;;;;;;;5.51;90.76;101977.50;4932124;29;20210;-61
2022/01/23 09:28:56;;;;;;;22.97;16.33;;;;;;;5.57;90.14;101979.19;4933866;29;20581;-61
2022/01/23 09:31:30;;;;;;;21.80;16.77;;;;;;;5.56;89.68;101987.72;4924626;28;20231;-61
2022/01/23 09:33:56;;;;;;;19.57;16.00;;;;;;;5.63;89.09;101994.47;4932650;29;20326;-61
2022/01/23 09:36:21;;;;;;;19.77;16.83;;;;;;;5.49;88.43;102000.50;4931919;29;20673;-61
2022/01/23 09:38:47;;;;;;;20.00;16.37;;;;;;;5.59;88.37;102003.00;4934868;28;20193;-61
2022/01/23 09:41:16;;;;;;;22.65;20.23;;;;;;;6.02;86.15;101992.66;4923307;28;20593;-61
2022/01/23 09:44:05;;;;;;;20.07;17.20;;;;;;;6.13;85.93;101998.56;4933456;29;20327;-61
2022/01/23 09:46:31;;;;;;;21.30;17.60;;;;;;;6.05;85.62;101999.44;4940179;29;20202;-62
2022/01/23 09:48:56;;;;;;;20.27;17.53;;;;;;;6.17;85.61;101996.00;4938133;29;20189;-61
2022/01/23 09:51:24;;;;;;;21.30;16.57;;;;;;;6.23;84.99;101996.78;4924992;29;20223;-62
2022/01/23 09:53:53;;;;;;;23.03;17.87;;;;;;;6.24;84.27;101995.94;4939747;29;20644;-62
2022/01/23 09:56:27;;;;;;;23.47;18.10;;;;;;;5.93;84.66;102001.19;4933150;29;20302;-62
2022/01/23 09:58:57;;;;;;;20.77;16.87;;;;;;;5.90;85.64;101993.50;4939712;29;20192;-63
2022/01/23 10:01:23;;;;;;;21.90;17.00;;;;;;;5.92;86.18;102009.69;4941382;28;20322;-62
2022/01/23 10:03:52;;;;;;;19.73;17.07;;;;;;;5.96;85.47;101998.59;4950514;28;20319;-62
2022/01/23 10:06:17;;;;;;;19.13;16.33;;;;;;;5.73;85.68;102003.81;4943698;28;20287;-62
2022/01/23 10:08:43;;;;;;;22.23;17.77;;;;;;;5.89;86.07;102012.28;4930235;29;20270;-61
2022/01/23 10:11:12;;;;;;;20.10;16.07;;;;;;;6.07;84.85;102003.69;4940929;28;20229;-62
2022/01/23 10:13:40;;;;;;;19.03;16.97;;;;;;;6.18;84.28;101997.66;4957331;28;20318;-61
2022/01/23 10:16:06;;;;;;;20.40;15.47;;;;;;;6.07;83.51;101993.47;4950756;28;20210;-61
2022/01/23 10:18:31;;;;;;;21.17;17.03;;;;;;;6.09;84.14;101993.47;4942748;29;20270;-61
2022/01/23 10:20:57;;;;;;;19.70;16.67;;;;;;;6.27;83.63;102002.75;4923206;29;20290;-61
2022/01/23 10:23:24;;;;;;;20.03;17.53;;;;;;;6.43;82.54;101989.00;4958559;28;20195;-61
2022/01/23 10:25:51;;;;;;;20.30;16.73;;;;;;;6.45;81.78;101987.28;5002245;28;20206;-61
2022/01/23 10:28:20;;;;;;;19.57;16.40;;;;;;;6.58;81.21;101982.09;4997837;28;20297;-61
2022/01/23 10:30:56;;;;;;;21.20;17.53;;;;;;;6.26;81.34;101988.25;4991191;28;20897;-61
2022/01/23 10:33:27;;;;;;;24.63;16.57;;;;;;;6.55;82.10;101984.66;5006669;28;20634;-62
2022/01/23 10:35:52;;;;;;;19.83;16.50;;;;;;;6.48;81.23;101977.91;4999061;28;20658;-62
2022/01/23 10:38:19;;;;;;;21.63;15.53;;;;;;;6.65;81.09;101982.88;5009947;28;20268;-62
2022/01/23 10:40:51;;;;;;;19.50;15.80;;;;;;;6.68;80.10;101985.41;5004890;28;20287;-62
2022/01/23 10:48:40;;;;;;;18.90;14.70;;;;;;;6.99;77.93;101990.28;5011310;28;20360;-62
2022/01/23 10:51:21;;;;;;;18.63;14.73;;;;;;;6.87;76.25;101996.34;5004277;28;20232;-62
2022/01/23 10:54:16;;;;;;;18.57;15.50;;;;;;;6.92;76.38;101987.78;5011936;28;20186;-62
2022/01/23 10:57:04;;;;;;;20.40;15.07;;;;;;;7.05;75.46;101987.66;5002164;28;20193;-62
2022/01/23 10:59:46;;;;;;;20.33;14.30;;;;;;;6.69;75.62;101987.94;5005768;28;20294;-62
2022/01/23 11:02:14;;;;;;;17.87;15.00;;;;;;;6.57;77.32;101981.25;5016447;28;20228;-62
2022/01/23 11:04:52;;;;;;;18.57;14.53;;;;;;;6.43;76.87;101978.75;4993753;28;20191;-62
2022/01/23 11:07:18;;;;;;;18.60;15.20;;;;;;;6.54;78.16;101977.84;4999350;28;20311;-62
2022/01/23 11:09:43;;;;;;;20.53;15.43;;;;;;;6.76;77.90;101973.41;5007624;28;20253;-62
2022/01/23 11:12:27;;;;;;;21.23;16.47;;;;;;;6.95;76.78;101971.53;4997437;28;20222;-62
2022/01/23 11:17:54;;;;;;;21.97;17.23;;;;;;;6.45;78.34;101966.00;5010261;28;20278;-62
2022/01/23 11:20:50;;;;;;;21.80;17.53;;;;;;;6.57;78.05;101967.59;5001752;28;20167;-62
2022/01/23 11:23:22;;;;;;;20.13;17.30;;;;;;;6.84;77.38;101970.78;4993117;28;20697;-62
2022/01/23 11:25:56;;;;;;;23.43;17.23;;;;;;;6.73;77.72;101968.31;5004577;28;20211;-62
2022/01/23 11:28:39;;;;;;;22.40;17.70;;;;;;;6.77;77.79;101959.75;4997707;28;20275;-62
2022/01/23 11:31:11;;;;;;;23.37;17.83;;;;;;;6.58;78.26;101957.34;4981121;28;20261;-61
2022/01/23 11:33:36;;;;;;;24.13;17.47;;;;;;;6.60;78.33;101967.59;4995079;28;20202;-62
2022/01/23 11:36:03;;;;;;;22.30;17.47;;;;;;;6.66;77.74;101952.19;4991673;28;20646;-62
2022/01/23 11:38:29;;;;;;;24.20;18.30;;;;;;;6.74;78.21;101957.22;4996340;28;20187;-61
2022/01/23 11:55:37;;;;;;;24.23;18.30;;;;;;;6.32;80.67;101955.00;4956423;28;20232;-62
2022/01/23 11:58:04;;;;;;;21.80;16.90;;;;;;;6.58;80.35;101948.84;4967913;28;20652;-62
2022/01/23 12:00:32;;;;;;;24.13;18.87;;;;;;;6.49;80.75;101943.78;4946149;28;20219;-62
2022/01/23 12:03:14;;;;;;;25.90;18.20;;;;;;;6.43;81.71;101949.81;4955030;28;20207;-62
2022/01/23 12:05:45;;;;;;;24.13;18.40;;;;;;;6.41;81.15;101954.94;4972892;28;20221;-61
2022/01/23 12:08:21;;;;;;;21.23;16.00;;;;;;;6.19;81.42;101944.00;4972047;28;20274;-61
2022/01/23 12:11:43;;;;;;;19.67;14.97;;;;;;;6.05;81.87;101946.63;4962129;28;20367;-62
2022/01/23 12:16:58;;;;;;;19.93;15.17;;;;;;;6.51;79.53;101935.28;4982489;28;20225;-63
2022/01/23 12:19:26;;;;;;;21.30;16.03;;;;;;;6.76;79.61;101930.78;4991513;28;20270;-62
2022/01/23 12:21:54;;;;;;;21.70;15.90;;;;;;;7.00;78.68;101928.84;4981597;28;21001;-62
2022/01/23 12:24:23;;;;;;;22.73;16.67;;;;;;;7.16;77.61;101929.53;4987469;28;20179;-62
2022/01/23 12:26:51;;;;;;;23.50;16.27;;;;;;;7.08;76.29;101921.06;4991463;28;20199;-61
2022/01/23 12:29:27;;;;;;;19.03;15.17;;;;;;;7.00;76.16;101918.59;4993537;28;20183;-61
2022/01/23 12:32:17;;;;;;;19.40;15.63;;;;;;;6.98;76.13;101927.16;4965404;28;20665;-61
2022/01/23 12:34:49;;;;;;;21.00;15.27;;;;;;;7.20;75.25;101915.00;5024122;28;20301;-61
2022/01/23 12:37:14;;;;;;;19.23;15.23;;;;;;;7.28;74.91;101908.03;4999202;28;20635;-60
2022/01/23 12:39:40;;;;;;;21.20;15.53;;;;;;;7.43;74.04;101900.19;5009411;28;20202;-61
2022/01/23 12:42:05;;;;;;;27.57;16.13;;;;;;;7.37;74.78;101902.84;5003645;28;20572;-61
2022/01/23 12:44:34;;;;;;;25.27;20.03;;;;;;;7.05;76.33;101905.78;5009241;28;20209;-60
2022/01/23 12:47:02;;;;;;;22.00;16.20;;;;;;;7.24;75.65;101897.03;5005219;28;20175;-61
2022/01/23 12:49:33;;;;;;;19.20;15.23;;;;;;;7.37;74.73;101902.00;4997934;28;20671;-61
2022/01/23 12:52:10;;;;;;;18.30;14.47;;;;;;;7.48;73.28;101889.91;5005550;28;20219;-60
2022/01/23 12:54:53;;;;;;;17.97;15.07;;;;;;;7.58;73.24;101895.75;5004936;28;20215;-61
2022/01/23 12:57:24;;;;;;;18.20;14.53;;;;;;;7.50;73.85;101889.88;5012794;28;20174;-61
2022/01/23 12:59:51;;;;;;;17.13;14.03;;;;;;;7.41;73.52;101891.69;5013640;28;20265;-61
2022/01/23 13:02:19;;;;;;;17.90;14.57;;;;;;;7.57;72.79;101900.00;5018727;28;20226;-63
2022/01/23 13:04:50;;;;;;;16.77;13.73;;;;;;;8.04;72.04;101894.25;5011878;28;20570;-61
2022/01/23 13:07:29;;;;;;;16.50;13.60;;;;;;;8.05;70.78;101890.78;5013089;28;20675;-61
2022/01/23 13:10:02;;;;;;;17.10;13.40;;;;;;;7.83;70.75;101888.56;5008633;28;20186;-61
2022/01/23 13:12:47;;;;;;;17.33;14.17;;;;;;;7.73;71.36;101894.69;5001455;28;20238;-61
2022/01/23 13:15:40;;;;;;;16.23;12.17;;;;;;;7.69;69.53;101900.72;5011829;28;20213;-61
2022/01/23 13:27:35;;;;;;;13.60;10.57;;;;;;;7.25;70.21;101897.84;4989199;28;20758;-60
2022/01/23 13:35:07;;;;;;;11.70;9.63;;;;;;;6.81;71.85;101906.84;4992152;28;20389;-60
2022/01/23 13:37:36;;;;;;;12.27;9.03;;;;;;;6.89;71.45;101908.47;4993199;28;20175;-60
2022/01/23 13:40:07;;;;;;;9.13;7.40;;;;;;;6.62;70.67;101912.13;4973735;28;20255;-60
2022/01/23 13:51:33;;;;;;;15.23;8.93;;;;;;;6.27;73.63;101906.44;4990301;28;20231;-61
2022/01/23 14:02:17;;;;;;;11.53;9.23;;;;;;;5.88;77.13;101907.53;4997088;28;20689;-60
2022/01/23 14:04:54;;;;;;;12.03;8.40;;;;;;;5.85;76.29;101905.03;4991845;28;20605;-63
2022/01/23 14:07:22;;;;;;;10.10;8.10;;;;;;;5.90;76.56;101908.38;4992262;28;20313;-60
2022/01/23 14:09:47;;;;;;;10.03;7.37;;;;;;;5.78;77.06;101906.75;4992267;28;20179;-61
2022/01/23 14:12:15;;;;;;;12.07;8.60;;;;;;;6.00;76.75;101909.22;4996031;28;20269;-61
2022/01/23 14:15:16;;;;;;;11.07;8.73;;;;;;;6.05;75.51;101905.75;4975956;28;20301;-61
2022/01/23 14:17:42;;;;;;;10.30;8.10;;;;;;;6.19;75.15;101903.13;4991909;28;20194;-62
2022/01/23 14:20:16;;;;;;;8.50;6.63;;;;;;;5.82;75.30;101905.88;4982499;28;20188;-61
2022/01/23 14:22:44;;;;;;;10.87;7.83;;;;;;;6.07;75.72;101909.16;4999806;28;20171;-61
2022/01/23 14:25:19;;;;;;;10.50;6.53;;;;;;;5.99;75.89;101908.34;4976751;28;20263;-61
2022/01/23 14:28:02;;;;;;;8.93;5.90;;;;;;;5.70;75.21;101911.06;4992113;28;20180;-61
2022/01/23 14:30:29;;;;;;;9.83;7.57;;;;;;;5.76;76.41;101909.31;4985199;28;20232;-61
2022/01/23 14:33:04;;;;;;;8.33;6.97;;;;;;;5.97;75.99;101907.50;5003106;28;20193;-60
2022/01/23 14:35:31;;;;;;;7.57;6.37;;;;;;;6.14;73.75;101907.44;4991621;28;20296;-61
2022/01/23 14:38:19;;;;;;;10.07;8.17;;;;;;;6.02;74.18;101905.78;4991854;28;20797;-61
2022/01/23 14:40:52;;;;;;;10.13;8.47;;;;;;;6.08;74.88;101902.38;4987993;28;20230;-61
2022/01/23 14:43:18;;;;;;;10.87;9.00;;;;;;;6.24;74.64;101903.94;4998565;28;20190;-61
2022/01/23 14:45:46;;;;;;;12.60;9.17;;;;;;;6.37;74.61;101896.19;4991546;28;20201;-61
2022/01/23 14:48:14;;;;;;;13.00;9.87;;;;;;;6.53;74.69;101897.72;4991560;28;20178;-61
2022/01/23 14:50:43;;;;;;;12.10;9.53;;;;;;;6.71;74.68;101899.28;4986208;28;20726;-61
2022/01/23 14:53:17;;;;;;;13.90;10.40;;;;;;;6.42;74.48;101892.69;5001036;28;20173;-61
2022/01/23 14:55:54;;;;;;;13.53;11.10;;;;;;;6.24;75.13;101903.06;4991385;28;20613;-61
2022/01/23 14:58:22;;;;;;;17.80;12.87;;;;;;;6.14;76.45;101892.94;4991561;28;20178;-61
2022/01/23 15:00:49;;;;;;;13.73;11.27;;;;;;;6.16;77.23;101892.91;4986378;28;20706;-61
2022/01/23 15:03:15;;;;;;;16.90;12.20;;;;;;;6.28;76.66;101889.44;4999945;28;20185;-61
2022/01/23 15:05:41;;;;;;;13.97;11.73;;;;;;;6.24;76.20;101883.50;4991325;28;20224;-61